sensor_id;sensor_type;location;lat;lon;timestamp;pressure;altitude;pressure_sealevel;temperature;humidity
61136;BME280;47021;51.340;12.432;2022-12-07T00:00:23;100002.34;;;6.89;69.87
61136;BME280;47021;51.340;12.432;2022-12-07T00:05:52;99994.50;;;7.01;69.19
61136;BME280;47021;51.340;12.432;2022-12-07T00:11:04;99991.16;;;7.12;68.62
61136;BME280;47021;51.340;12.432;2022-12-07T00:21:54;99993.06;;;6.97;68.73
61136;BME280;47021;51.340;12.432;2022-12-07T00:27:03;99978.22;;;6.99;68.91
61136;BME280;47021;51.340;12.432;2022-12-07T00:32:13;99966.72;;;6.91;68.97
61136;BME280;47021;51.340;12.432;2022-12-07T00:37:22;99970.94;;;7.04;68.69
61136;BME280;47021;51.340;12.432;2022-12-07T00:42:31;99972.22;;;6.99;68.54
61136;BME280;47021;51.340;12.432;2022-12-07T00:53:09;99957.31;;;6.77;68.65
61136;BME280;47021;51.340;12.432;2022-12-07T00:58:18;99961.91;;;6.49;69.23
61136;BME280;47021;51.340;12.432;2022-12-07T01:06:32;99960.44;;;5.82;71.23
61136;BME280;47021;51.340;12.432;2022-12-07T01:11:42;99959.13;;;5.89;70.24
61136;BME280;47021;51.340;12.432;2022-12-07T01:16:51;99960.09;;;5.73;69.83
61136;BME280;47021;51.340;12.432;2022-12-07T01:22:10;99949.91;;;5.97;69.38
61136;BME280;47021;51.340;12.432;2022-12-07T01:27:19;99951.94;;;5.80;69.62
61136;BME280;47021;51.340;12.432;2022-12-07T01:32:28;99949.63;;;5.62;69.69
61136;BME280;47021;51.340;12.432;2022-12-07T01:37:38;99941.72;;;5.91;68.84
61136;BME280;47021;51.340;12.432;2022-12-07T01:42:47;99938.88;;;5.81;68.63
61136;BME280;47021;51.340;12.432;2022-12-07T01:47:56;99932.50;;;5.47;69.18
61136;BME280;47021;51.340;12.432;2022-12-07T01:53:06;99935.41;;;5.55;68.96
61136;BME280;47021;51.340;12.432;2022-12-07T01:58:18;99934.38;;;5.58;68.88
61136;BME280;47021;51.340;12.432;2022-12-07T02:03:30;99930.41;;;5.52;68.25
61136;BME280;47021;51.340;12.432;2022-12-07T02:08:43;99929.09;;;5.59;68.12
61136;BME280;47021;51.340;12.432;2022-12-07T02:13:52;99923.66;;;5.37;68.63
61136;BME280;47021;51.340;12.432;2022-12-07T02:19:23;99918.97;;;5.30;68.79
61136;BME280;47021;51.340;12.432;2022-12-07T02:40:45;99889.22;;;5.10;68.92
61136;BME280;47021;51.340;12.432;2022-12-07T02:46:16;99874.22;;;5.15;69.04
61136;BME280;47021;51.340;12.432;2022-12-07T02:51:34;99876.94;;;5.26;68.27
61136;BME280;47021;51.340;12.432;2022-12-07T02:54:21;99870.09;;;5.25;68.61
61136;BME280;47021;51.340;12.432;2022-12-07T03:10:21;99854.69;;;5.36;67.71
61136;BME280;47021;51.340;12.432;2022-12-07T03:15:32;99854.91;;;4.67;69.31
61136;BME280;47021;51.340;12.432;2022-12-07T03:20:42;99858.34;;;5.07;68.54
61136;BME280;47021;51.340;12.432;2022-12-07T03:25:55;99862.69;;;5.07;68.63
61136;BME280;47021;51.340;12.432;2022-12-07T03:41:44;99824.25;;;5.52;67.96
61136;BME280;47021;51.340;12.432;2022-12-07T03:47:14;99831.13;;;5.66;67.62
61136;BME280;47021;51.340;12.432;2022-12-07T03:57:45;99829.56;;;5.38;68.05
61136;BME280;47021;51.340;12.432;2022-12-07T04:03:03;99818.47;;;5.49;68.12
61136;BME280;47021;51.340;12.432;2022-12-07T04:11:02;99821.16;;;5.60;68.34
61136;BME280;47021;51.340;12.432;2022-12-07T04:16:18;99805.81;;;5.57;68.63
61136;BME280;47021;51.340;12.432;2022-12-07T04:21:30;99801.19;;;5.87;67.53
61136;BME280;47021;51.340;12.432;2022-12-07T04:26:41;99795.38;;;5.96;67.46
61136;BME280;47021;51.340;12.432;2022-12-07T04:31:51;99788.34;;;5.86;67.46
61136;BME280;47021;51.340;12.432;2022-12-07T04:37:01;99790.50;;;5.92;68.10
61136;BME280;47021;51.340;12.432;2022-12-07T04:42:10;99783.03;;;5.87;68.23
61136;BME280;47021;51.340;12.432;2022-12-07T04:47:22;99778.97;;;5.83;68.58
61136;BME280;47021;51.340;12.432;2022-12-07T04:52:40;99775.47;;;5.71;69.49
61136;BME280;47021;51.340;12.432;2022-12-07T04:57:49;99769.50;;;5.58;69.50
61136;BME280;47021;51.340;12.432;2022-12-07T05:02:58;99765.84;;;5.73;69.24
61136;BME280;47021;51.340;12.432;2022-12-07T05:10:57;99763.25;;;5.73;69.30
61136;BME280;47021;51.340;12.432;2022-12-07T05:16:06;99765.53;;;5.91;69.33
61136;BME280;47021;51.340;12.432;2022-12-07T05:21:16;99760.25;;;5.92;69.43
61136;BME280;47021;51.340;12.432;2022-12-07T05:26:33;99772.91;;;5.84;69.72
61136;BME280;47021;51.340;12.432;2022-12-07T05:31:51;99766.25;;;5.93;70.04
61136;BME280;47021;51.340;12.432;2022-12-07T05:37:21;99756.88;;;6.03;69.68
61136;BME280;47021;51.340;12.432;2022-12-07T05:42:32;99765.75;;;5.75;71.03
61136;BME280;47021;51.340;12.432;2022-12-07T05:47:41;99755.25;;;6.02;69.99
61136;BME280;47021;51.340;12.432;2022-12-07T05:52:50;99756.75;;;6.17;69.41
61136;BME280;47021;51.340;12.432;2022-12-07T05:58:08;99744.56;;;6.06;70.08
61136;BME280;47021;51.340;12.432;2022-12-07T06:03:24;99742.41;;;6.24;69.81
61136;BME280;47021;51.340;12.432;2022-12-07T06:14:21;99752.69;;;6.25;70.37
61136;BME280;47021;51.340;12.432;2022-12-07T06:31:01;99752.59;;;6.14;71.06
61136;BME280;47021;51.340;12.432;2022-12-07T07:21:36;99765.44;;;6.76;69.49
61136;BME280;47021;51.340;12.432;2022-12-07T07:29:35;99775.53;;;6.44;70.16
61136;BME280;47021;51.340;12.432;2022-12-07T07:34:48;99777.34;;;6.31;71.45
61136;BME280;47021;51.340;12.432;2022-12-07T07:39:57;99771.75;;;6.95;69.07
61136;BME280;47021;51.340;12.432;2022-12-07T07:45:07;99779.38;;;7.32;68.15
61136;BME280;47021;51.340;12.432;2022-12-07T07:50:16;99779.22;;;6.76;68.85
61136;BME280;47021;51.340;12.432;2022-12-07T07:55:25;99777.31;;;7.02;68.78
61136;BME280;47021;51.340;12.432;2022-12-07T08:00:36;99779.84;;;6.80;69.09
61136;BME280;47021;51.340;12.432;2022-12-07T08:14:16;99784.47;;;6.64;69.55
61136;BME280;47021;51.340;12.432;2022-12-07T08:19:31;99781.38;;;6.59;69.69
61136;BME280;47021;51.340;12.432;2022-12-07T08:24:40;99784.41;;;6.76;69.15
61136;BME280;47021;51.340;12.432;2022-12-07T08:29:49;99788.00;;;6.86;69.52
61136;BME280;47021;51.340;12.432;2022-12-07T08:35:00;99771.56;;;7.21;68.50
61136;BME280;47021;51.340;12.432;2022-12-07T08:40:17;99768.09;;;7.44;67.79
61136;BME280;47021;51.340;12.432;2022-12-07T08:45:25;99781.38;;;7.17;68.92
61136;BME280;47021;51.340;12.432;2022-12-07T08:50:35;99771.03;;;7.72;66.86
61136;BME280;47021;51.340;12.432;2022-12-07T08:55:45;99776.47;;;8.03;66.16
61136;BME280;47021;51.340;12.432;2022-12-07T09:00:55;99787.09;;;7.55;66.80
61136;BME280;47021;51.340;12.432;2022-12-07T09:06:14;99794.66;;;7.01;69.07
61136;BME280;47021;51.340;12.432;2022-12-07T09:11:43;99787.28;;;6.84;69.44
61136;BME280;47021;51.340;12.432;2022-12-07T09:16:52;99793.09;;;7.34;68.74
61136;BME280;47021;51.340;12.432;2022-12-07T09:22:01;99799.22;;;7.22;69.07
61136;BME280;47021;51.340;12.432;2022-12-07T09:27:12;99790.19;;;7.49;68.34
61136;BME280;47021;51.340;12.432;2022-12-07T16:35:58;99703.97;;;6.76;69.30
61136;BME280;47021;51.340;12.432;2022-12-07T16:41:14;99690.63;;;7.16;67.49
61136;BME280;47021;51.340;12.432;2022-12-07T16:49:18;99690.16;;;7.33;67.04
61136;BME280;47021;51.340;12.432;2022-12-07T16:54:27;99683.56;;;7.51;66.04
61136;BME280;47021;51.340;12.432;2022-12-07T17:05:17;99687.31;;;7.25;66.63
61136;BME280;47021;51.340;12.432;2022-12-07T17:16:05;99676.78;;;7.81;65.29
61136;BME280;47021;51.340;12.432;2022-12-07T17:21:43;99674.56;;;7.66;65.54
61136;BME280;47021;51.340;12.432;2022-12-07T17:27:09;99669.25;;;7.67;65.09
61136;BME280;47021;51.340;12.432;2022-12-07T17:38:09;99672.66;;;7.79;64.46
61136;BME280;47021;51.340;12.432;2022-12-07T18:23:09;99657.22;;;7.22;65.89
61136;BME280;47021;51.340;12.432;2022-12-07T18:28:19;99664.91;;;7.46;65.47
61136;BME280;47021;51.340;12.432;2022-12-07T18:33:28;99660.91;;;7.42;64.85
61136;BME280;47021;51.340;12.432;2022-12-07T18:38:37;99669.25;;;7.45;64.87
61136;BME280;47021;51.340;12.432;2022-12-07T18:43:46;99662.03;;;6.93;66.43
61136;BME280;47021;51.340;12.432;2022-12-07T18:49:01;99655.91;;;7.50;64.91
61136;BME280;47021;51.340;12.432;2022-12-07T18:54:10;99651.69;;;7.38;65.44
61136;BME280;47021;51.340;12.432;2022-12-07T18:59:23;99654.03;;;7.52;65.15
61136;BME280;47021;51.340;12.432;2022-12-07T19:04:33;99655.91;;;7.50;64.98
61136;BME280;47021;51.340;12.432;2022-12-07T19:40:10;99644.97;;;7.35;65.42
61136;BME280;47021;51.340;12.432;2022-12-07T20:25:07;99639.78;;;7.24;65.55
61136;BME280;47021;51.340;12.432;2022-12-07T20:30:18;99639.16;;;7.21;65.90
61136;BME280;47021;51.340;12.432;2022-12-07T20:35:29;99627.56;;;7.69;64.23
61136;BME280;47021;51.340;12.432;2022-12-07T20:40:45;99629.91;;;7.72;64.43
61136;BME280;47021;51.340;12.432;2022-12-07T20:45:56;99631.00;;;7.58;64.72
61136;BME280;47021;51.340;12.432;2022-12-07T20:48:22;99614.97;;;7.53;64.41
61136;BME280;47021;51.340;12.432;2022-12-07T20:53:39;99621.44;;;7.48;64.40
61136;BME280;47021;51.340;12.432;2022-12-07T20:58:48;99613.84;;;7.78;63.98
61136;BME280;47021;51.340;12.432;2022-12-07T21:18:14;99611.72;;;7.72;63.81
61136;BME280;47021;51.340;12.432;2022-12-07T22:16:45;99586.38;;;7.53;63.59
61136;BME280;47021;51.340;12.432;2022-12-07T22:21:54;99594.47;;;7.17;64.98
61136;BME280;47021;51.340;12.432;2022-12-07T22:27:03;99597.38;;;7.46;64.21
61136;BME280;47021;51.340;12.432;2022-12-07T22:32:18;99599.53;;;7.07;65.72
61136;BME280;47021;51.340;12.432;2022-12-07T22:37:27;99592.31;;;7.33;65.25
61136;BME280;47021;51.340;12.432;2022-12-07T22:42:42;99592.31;;;7.22;65.45
61136;BME280;47021;51.340;12.432;2022-12-07T22:47:51;99578.84;;;7.39;65.47
61136;BME280;47021;51.340;12.432;2022-12-07T22:53:01;99572.25;;;7.35;65.08
61136;BME280;47021;51.340;12.432;2022-12-07T22:58:10;99565.53;;;7.75;64.53
61136;BME280;47021;51.340;12.432;2022-12-07T23:03:20;99563.69;;;7.55;64.83
61136;BME280;47021;51.340;12.432;2022-12-07T23:08:29;99552.66;;;7.42;64.46
61136;BME280;47021;51.340;12.432;2022-12-07T23:13:38;99552.44;;;7.66;64.23
61136;BME280;47021;51.340;12.432;2022-12-07T23:18:47;99554.31;;;7.75;64.18
61136;BME280;47021;51.340;12.432;2022-12-07T23:24:15;99547.41;;;7.53;64.11
61136;BME280;47021;51.340;12.432;2022-12-07T23:29:44;99542.69;;;7.90;63.29
61136;BME280;47021;51.340;12.432;2022-12-07T23:34:54;99537.78;;;7.76;63.41
61136;BME280;47021;51.340;12.432;2022-12-07T23:40:05;99528.72;;;7.59;63.99
61136;BME280;47021;51.340;12.432;2022-12-07T23:45:30;99532.97;;;7.29;65.05
61136;BME280;47021;51.340;12.432;2022-12-07T23:50:38;99525.84;;;7.73;63.59
